createdAt,value
2018-12-15T00:03:50.593Z,7.40
2018-12-15T00:08:35.644Z,12.50
2018-12-15T00:13:21.938Z,10.00
2018-12-15T00:18:11.565Z,7.20
2018-12-15T00:22:56.901Z,7.30
2018-12-15T00:27:43.342Z,10.53
2018-12-15T00:32:28.610Z,8.97
2018-12-15T00:37:13.805Z,8.20
2018-12-15T00:42:02.600Z,12.70
2018-12-15T00:46:47.812Z,9.53
2018-12-15T00:51:32.569Z,9.87
2018-12-15T00:56:18.370Z,12.53
2018-12-15T01:01:03.808Z,11.17
2018-12-15T01:05:47.990Z,11.33
2018-12-15T01:10:35.005Z,11.30
2018-12-15T01:15:23.581Z,10.30
2018-12-15T01:20:12.539Z,11.83
2018-12-15T01:24:56.700Z,9.60
2018-12-15T01:29:42.654Z,13.50
2018-12-15T01:34:27.782Z,13.20
2018-12-15T01:39:12.217Z,11.80
2018-12-15T01:43:56.599Z,9.73
2018-12-15T01:48:41.355Z,9.07
2018-12-15T01:53:26.914Z,8.23
2018-12-15T01:58:11.244Z,11.93
2018-12-15T02:03:00.329Z,16.40
2018-12-15T02:07:44.532Z,14.73
2018-12-15T02:12:34.478Z,14.73
2018-12-15T02:17:19.714Z,11.13
2018-12-15T02:22:05.605Z,9.60
2018-12-15T02:26:50.997Z,10.13
2018-12-15T02:31:36.486Z,10.00
2018-12-15T02:36:22.701Z,10.00
2018-12-15T02:41:11.482Z,10.80
2018-12-15T02:45:57.521Z,8.97
2018-12-15T02:50:43.636Z,9.70
2018-12-15T02:55:29.364Z,10.60
2018-12-15T03:00:18.746Z,8.20
2018-12-15T03:05:04.549Z,10.17
2018-12-15T03:09:49.527Z,13.57
2018-12-15T03:14:34.573Z,13.83
2018-12-15T03:19:22.880Z,12.80
2018-12-15T03:24:07.395Z,10.67
2018-12-15T03:28:57.955Z,10.40
2018-12-15T03:33:43.385Z,12.03
2018-12-15T03:38:28.500Z,12.37
2018-12-15T03:43:13.037Z,9.10
2018-12-15T03:47:59.236Z,8.97
2018-12-15T03:52:44.026Z,11.73
2018-12-15T03:57:33.471Z,9.83
2018-12-15T04:02:18.565Z,10.23
2018-12-15T04:07:04.784Z,174.43
2018-12-15T04:11:48.973Z,10.33
2018-12-15T04:16:34.920Z,7.07
2018-12-15T04:21:20.313Z,8.17
2018-12-15T04:26:05.040Z,6.77
2018-12-15T04:30:51.891Z,7.23
2018-12-15T04:35:35.920Z,7.33
2018-12-15T04:40:24.131Z,9.20
2018-12-15T04:45:09.943Z,8.90
2018-12-15T04:49:59.166Z,11.97
2018-12-15T04:54:44.299Z,6.67
2018-12-15T04:59:34.342Z,9.17
2018-12-15T05:04:18.571Z,8.03
2018-12-15T05:09:06.826Z,13.33
2018-12-15T05:13:51.107Z,10.37
2018-12-15T05:18:39.564Z,9.03
2018-12-15T05:23:25.455Z,12.43
2018-12-15T05:28:10.616Z,10.73
2018-12-15T05:32:56.342Z,12.90
2018-12-15T05:37:42.313Z,21.10
2018-12-15T05:42:28.196Z,29.67
2018-12-15T05:47:13.406Z,17.73
2018-12-15T05:51:58.772Z,16.30
2018-12-15T05:57:29.040Z,20.60
2018-12-15T06:02:18.419Z,15.00
2018-12-15T06:07:02.771Z,13.30
2018-12-15T06:11:49.412Z,10.70
2018-12-15T06:16:34.712Z,16.73
2018-12-15T06:21:20.916Z,14.03
2018-12-15T06:26:06.141Z,10.33
2018-12-15T06:30:52.320Z,16.90
2018-12-15T06:35:37.487Z,13.43
2018-12-15T06:40:28.649Z,15.97
2018-12-15T06:45:14.792Z,15.40
2018-12-15T06:50:00.235Z,22.93
2018-12-15T06:54:44.360Z,12.60
2018-12-15T06:59:29.710Z,22.97
2018-12-15T07:04:15.382Z,11.97
2018-12-15T07:09:03.983Z,30.60
2018-12-15T07:13:48.208Z,20.93
2018-12-15T07:18:34.102Z,21.40
2018-12-15T07:23:19.277Z,17.43
2018-12-15T07:28:03.793Z,15.40
2018-12-15T07:32:49.008Z,19.13
2018-12-15T07:37:34.502Z,16.93
2018-12-15T07:42:20.426Z,16.73
2018-12-15T07:47:06.193Z,19.67
2018-12-15T07:51:51.048Z,20.20
2018-12-15T07:56:38.540Z,25.40
2018-12-15T08:01:23.964Z,27.33
2018-12-15T08:06:09.974Z,13.60
2018-12-15T08:11:00.717Z,24.83
2018-12-15T08:15:45.899Z,16.30
2018-12-15T08:20:32.369Z,13.93
2018-12-15T08:25:17.605Z,19.50
2018-12-15T08:30:03.172Z,16.70
2018-12-15T08:34:51.445Z,15.43
2018-12-15T08:39:37.593Z,24.10
2018-12-15T08:44:22.653Z,17.27
2018-12-15T08:49:07.549Z,23.70
2018-12-15T08:53:52.768Z,15.93
2018-12-15T08:58:38.036Z,34.40
2018-12-15T09:03:23.880Z,24.63
2018-12-15T09:08:10.595Z,12.60
2018-12-15T09:12:58.896Z,12.83
2018-12-15T09:17:43.103Z,20.40
2018-12-15T09:22:28.244Z,31.17
2018-12-15T09:27:13.480Z,49.20
2018-12-15T09:31:57.868Z,80.43
2018-12-15T09:36:43.128Z,93.40
2018-12-15T09:41:30.406Z,55.17
2018-12-15T09:46:14.709Z,69.30
2018-12-15T09:50:59.140Z,42.03
2018-12-15T09:55:45.085Z,35.57
2018-12-15T10:00:31.527Z,45.77
2018-12-15T10:05:22.641Z,25.33
2018-12-15T10:10:07.982Z,28.00
2018-12-15T10:14:58.093Z,69.13
2018-12-15T10:19:45.557Z,34.40
2018-12-15T10:24:30.900Z,34.03
2018-12-15T10:29:24.174Z,24.80
2018-12-15T10:34:08.308Z,17.83
2018-12-15T10:38:55.630Z,23.43
2018-12-15T10:43:40.257Z,20.57
2018-12-15T10:48:31.530Z,28.13
2018-12-15T10:53:16.217Z,45.00
2018-12-15T10:58:00.904Z,27.30
2018-12-15T11:02:46.636Z,25.13
2018-12-15T11:07:32.344Z,28.33
2018-12-15T11:12:18.345Z,24.90
2018-12-15T11:17:03.447Z,34.30
2018-12-15T11:21:49.213Z,38.23
2018-12-15T11:26:35.088Z,25.70
2018-12-15T11:31:25.657Z,29.20
2018-12-15T11:36:10.197Z,50.53
2018-12-15T11:40:59.400Z,33.07
2018-12-15T11:45:46.123Z,41.43
2018-12-15T11:50:32.645Z,35.53
2018-12-15T11:55:17.921Z,36.93
2018-12-15T12:00:02.918Z,36.27
2018-12-15T12:04:47.453Z,31.77
2018-12-15T12:09:33.077Z,37.03
2018-12-15T12:14:18.379Z,33.77
2018-12-15T12:19:03.926Z,40.20
2018-12-15T12:23:54.564Z,50.87
2018-12-15T12:28:39.760Z,51.50
2018-12-15T12:33:25.209Z,53.50
2018-12-15T12:38:09.829Z,39.67
2018-12-15T12:42:55.792Z,41.73
2018-12-15T12:47:47.065Z,45.37
2018-12-15T12:52:31.589Z,90.33
2018-12-15T12:57:17.488Z,54.73
2018-12-15T13:02:02.826Z,55.27
2018-12-15T13:06:48.418Z,65.40
2018-12-15T13:11:34.554Z,54.37
2018-12-15T13:16:18.853Z,74.27
2018-12-15T13:21:05.997Z,81.83
2018-12-15T13:25:51.237Z,69.60
2018-12-15T13:30:36.917Z,89.63
2018-12-15T13:35:22.822Z,67.27
2018-12-15T13:40:08.780Z,48.57
2018-12-15T13:44:53.941Z,47.53
2018-12-15T13:49:41.145Z,57.10
2018-12-15T13:54:25.926Z,62.10
2018-12-15T13:59:12.402Z,69.47
2018-12-15T14:03:56.670Z,56.43
2018-12-15T14:08:43.273Z,86.83
2018-12-15T14:13:34.014Z,107.77
2018-12-15T14:18:23.997Z,48.53
2018-12-15T14:23:08.483Z,76.53
2018-12-15T14:27:52.904Z,68.47
2018-12-15T14:32:38.065Z,52.80
2018-12-15T14:37:28.481Z,38.23
2018-12-15T14:42:13.104Z,53.10
2018-12-15T14:46:59.468Z,48.07
2018-12-15T14:51:43.631Z,51.83
2018-12-15T14:56:28.121Z,55.37
2018-12-15T15:01:18.910Z,52.00
2018-12-15T15:06:03.555Z,44.63
2018-12-15T15:10:49.051Z,65.57
2018-12-15T15:15:34.904Z,68.60
2018-12-15T15:20:21.369Z,46.10
2018-12-15T15:25:06.517Z,47.67
2018-12-15T15:29:52.316Z,64.70
2018-12-15T15:34:39.728Z,54.50
2018-12-15T15:39:24.052Z,50.63
2018-12-15T15:44:08.992Z,57.40
2018-12-15T15:48:54.442Z,64.83
2018-12-15T15:53:39.703Z,67.33
2018-12-15T15:58:25.626Z,69.97
2018-12-15T16:03:11.822Z,55.10
2018-12-15T16:07:56.222Z,90.33
2018-12-15T16:12:43.938Z,80.83
2018-12-15T16:17:28.927Z,69.00
2018-12-15T16:22:14.165Z,69.63
2018-12-15T16:26:59.001Z,69.47
2018-12-15T16:31:44.363Z,76.00
2018-12-15T16:36:29.775Z,74.80
2018-12-15T16:41:14.853Z,56.80
2018-12-15T16:45:59.740Z,62.60
2018-12-15T16:50:49.876Z,64.07
2018-12-15T16:55:31.990Z,73.43
2018-12-15T17:00:17.232Z,130.87
2018-12-15T17:05:02.025Z,110.33
2018-12-15T17:09:51.133Z,100.73
2018-12-15T17:14:36.457Z,90.87
2018-12-15T17:24:03.245Z,58.93
2018-12-15T17:28:48.648Z,78.10
2018-12-15T17:33:34.452Z,121.73
2018-12-15T17:38:20.645Z,76.27
2018-12-15T17:43:07.365Z,142.60
2018-12-15T17:47:51.789Z,75.20
2018-12-15T17:52:37.743Z,65.53
2018-12-15T17:57:23.058Z,59.17
2018-12-15T18:02:08.935Z,58.63
2018-12-15T18:06:58.731Z,46.80
2018-12-15T18:11:44.178Z,45.00
2018-12-15T18:16:28.566Z,47.93
2018-12-15T18:21:13.517Z,54.80
2018-12-15T18:26:00.058Z,46.10
2018-12-15T18:30:46.883Z,51.43
2018-12-15T18:35:32.221Z,45.73
2018-12-15T18:40:17.337Z,49.53
2018-12-15T18:45:05.932Z,60.23
2018-12-15T18:49:52.065Z,76.57
2018-12-15T18:54:43.729Z,56.00
2018-12-15T18:59:29.753Z,53.63
2018-12-15T19:04:14.542Z,54.33
2018-12-15T19:09:04.109Z,66.77
2018-12-15T19:13:47.287Z,54.13
2018-12-15T19:18:35.370Z,53.87
2018-12-15T19:23:20.407Z,47.60
2018-12-15T19:28:07.086Z,40.60
2018-12-15T19:32:52.747Z,37.77
2018-12-15T19:37:38.493Z,31.73
2018-12-15T19:42:23.094Z,32.83
2018-12-15T19:47:08.388Z,33.70
2018-12-15T19:51:53.753Z,45.93
2018-12-15T19:56:41.191Z,43.33
2018-12-15T20:01:25.332Z,33.13
2018-12-15T20:06:10.562Z,52.43
2018-12-15T20:10:55.831Z,57.17
2018-12-15T20:15:41.446Z,47.63
2018-12-15T20:20:32.310Z,38.00
2018-12-15T20:25:17.860Z,36.50
2018-12-15T20:30:04.567Z,45.67
2018-12-15T20:34:51.010Z,39.00
2018-12-15T20:39:38.334Z,51.23
2018-12-15T20:44:23.409Z,35.27
2018-12-15T20:49:08.999Z,42.67
2018-12-15T20:54:00.929Z,45.63
2018-12-15T20:58:47.882Z,46.53
2018-12-15T21:03:33.044Z,33.53
2018-12-15T21:08:24.582Z,35.77
2018-12-15T21:13:08.892Z,40.97
2018-12-15T21:17:54.204Z,33.77
2018-12-15T21:22:38.365Z,32.33
2018-12-15T21:27:22.530Z,28.87
2018-12-15T21:32:06.826Z,29.00
2018-12-15T21:36:52.142Z,26.23
2018-12-15T21:41:37.339Z,25.63
2018-12-15T21:46:28.409Z,32.73
2018-12-15T21:51:12.501Z,28.23
2018-12-15T21:56:06.721Z,35.93
2018-12-15T22:00:52.026Z,32.17
2018-12-15T22:05:37.300Z,32.47
2018-12-15T22:10:21.587Z,33.97
2018-12-15T22:15:07.741Z,31.47
2018-12-15T22:19:53.248Z,31.67
2018-12-15T22:24:37.531Z,38.43
2018-12-15T22:29:21.758Z,40.27
2018-12-15T22:34:06.898Z,41.03
2018-12-15T22:38:58.419Z,32.50
2018-12-15T22:43:42.633Z,31.20
2018-12-15T22:48:28.100Z,29.00
2018-12-15T22:53:14.589Z,33.27
2018-12-15T22:58:00.836Z,32.63
2018-12-15T23:02:46.031Z,27.87
2018-12-15T23:07:31.462Z,28.17
2018-12-15T23:12:15.762Z,32.13
2018-12-15T23:17:01.079Z,39.00
2018-12-15T23:21:45.218Z,32.00
2018-12-15T23:26:34.486Z,35.67
2018-12-15T23:31:19.697Z,35.67
2018-12-15T23:36:08.725Z,39.67
2018-12-15T23:40:52.932Z,35.73
2018-12-15T23:45:42.865Z,33.07
2018-12-15T23:50:28.091Z,26.60
2018-12-15T23:55:13.288Z,27.73
2018-12-15T23:59:59.520Z,38.67
